createdAt,value
2022-09-14T00:01:28.891Z,17.90
2022-09-14T00:04:01.510Z,17.90
2022-09-14T00:06:30.367Z,18.00
2022-09-14T00:08:58.928Z,17.90
2022-09-14T00:11:27.783Z,17.90
2022-09-14T00:13:56.039Z,17.90
2022-09-14T00:16:25.901Z,17.90
2022-09-14T00:18:54.351Z,17.80
2022-09-14T00:21:21.606Z,17.80
2022-09-14T00:23:48.406Z,17.80
2022-09-14T00:26:18.200Z,17.70
2022-09-14T00:28:47.786Z,17.70
2022-09-14T00:31:15.562Z,17.70
2022-09-14T00:33:44.078Z,17.70
2022-09-14T00:36:26.895Z,17.70
2022-09-14T00:38:56.601Z,17.60
2022-09-14T00:41:26.022Z,17.60
2022-09-14T00:44:06.502Z,17.60
2022-09-14T00:46:42.528Z,17.60
2022-09-14T00:49:13.231Z,17.60
2022-09-14T00:51:52.035Z,17.60
2022-09-14T00:54:19.467Z,17.60
2022-09-14T00:56:47.719Z,17.60
2022-09-14T00:59:19.437Z,17.60
2022-09-14T01:01:46.681Z,17.60
2022-09-14T01:04:13.431Z,17.60
2022-09-14T01:06:56.820Z,17.60
2022-09-14T01:09:29.269Z,17.50
2022-09-14T01:12:11.113Z,17.50
2022-09-14T01:15:15.892Z,17.50
2022-09-14T01:18:03.979Z,17.50
2022-09-14T01:20:40.331Z,17.40
2022-09-14T01:23:27.496Z,17.40
2022-09-14T01:26:25.003Z,17.40
2022-09-14T01:29:11.989Z,17.30
2022-09-14T01:31:52.966Z,17.30
2022-09-14T01:34:31.607Z,17.30
2022-09-14T01:37:04.811Z,17.30
2022-09-14T01:39:35.154Z,17.30
2022-09-14T01:42:03.049Z,17.30
2022-09-14T01:44:36.016Z,17.20
2022-09-14T01:47:13.188Z,17.20
2022-09-14T01:49:46.803Z,17.20
2022-09-14T01:52:19.995Z,17.20
2022-09-14T01:54:52.802Z,17.20
2022-09-14T01:57:31.853Z,17.20
2022-09-14T02:00:03.744Z,17.10
2022-09-14T02:02:41.598Z,17.20
2022-09-14T02:05:15.141Z,17.10
2022-09-14T02:07:41.936Z,17.10
2022-09-14T02:10:12.471Z,17.00
2022-09-14T02:12:40.681Z,17.00
2022-09-14T02:15:10.714Z,16.90
2022-09-14T02:17:37.926Z,16.80
2022-09-14T02:20:08.322Z,16.80
2022-09-14T02:22:35.692Z,16.70
2022-09-14T02:25:03.058Z,16.70
2022-09-14T02:27:29.628Z,16.60
2022-09-14T02:29:56.392Z,16.60
2022-09-14T02:32:38.903Z,16.50
2022-09-14T02:35:11.062Z,16.50
2022-09-14T02:37:52.912Z,16.50
2022-09-14T02:40:22.349Z,16.40
2022-09-14T02:43:01.686Z,16.40
2022-09-14T02:45:28.287Z,16.40
2022-09-14T02:48:11.445Z,16.40
2022-09-14T02:51:05.064Z,16.30
2022-09-14T02:53:46.271Z,16.20
2022-09-14T02:56:15.019Z,16.20
2022-09-14T02:58:43.801Z,16.20
2022-09-14T03:01:13.666Z,16.10
2022-09-14T03:03:40.493Z,16.20
2022-09-14T03:06:07.305Z,16.10
2022-09-14T03:08:34.191Z,16.10
2022-09-14T03:11:01.024Z,16.10
2022-09-14T03:13:27.708Z,16.10
2022-09-14T03:15:54.832Z,16.10
2022-09-14T03:18:21.483Z,16.10
2022-09-14T03:20:48.190Z,16.00
2022-09-14T03:23:15.127Z,16.00
2022-09-14T03:25:44.523Z,16.00
2022-09-14T03:28:12.804Z,16.00
2022-09-14T03:30:39.995Z,16.00
2022-09-14T03:33:07.082Z,16.00
2022-09-14T03:35:34.093Z,16.00
2022-09-14T03:38:03.048Z,15.90
2022-09-14T03:40:29.953Z,15.90
2022-09-14T03:42:57.092Z,15.90
2022-09-14T03:45:23.975Z,15.90
2022-09-14T03:47:50.611Z,15.80
2022-09-14T03:50:18.222Z,15.80
2022-09-14T03:52:45.099Z,15.80
2022-09-14T03:55:11.963Z,15.80
2022-09-14T03:57:39.384Z,15.70
2022-09-14T04:00:07.655Z,15.70
2022-09-14T04:02:34.461Z,15.70
2022-09-14T04:05:01.185Z,15.70
2022-09-14T04:07:27.804Z,15.60
2022-09-14T04:09:54.502Z,15.60
2022-09-14T04:12:21.160Z,15.50
2022-09-14T04:14:47.902Z,15.50
2022-09-14T04:17:14.552Z,15.50
2022-09-14T04:19:42.110Z,15.40
2022-09-14T04:22:09.240Z,15.40
2022-09-14T04:24:36.445Z,15.40
2022-09-14T04:27:03.193Z,15.30
2022-09-14T04:29:30.658Z,15.30
2022-09-14T04:31:57.978Z,15.30
2022-09-14T04:34:24.791Z,15.30
2022-09-14T04:36:51.680Z,15.30
2022-09-14T04:39:18.498Z,15.30
2022-09-14T04:41:45.215Z,15.30
2022-09-14T04:44:12.073Z,15.20
2022-09-14T04:46:43.594Z,15.20
2022-09-14T04:49:12.980Z,15.20
2022-09-14T04:51:39.842Z,15.20
2022-09-14T04:54:07.505Z,15.20
2022-09-14T04:56:36.830Z,15.10
2022-09-14T04:59:05.603Z,15.00
2022-09-14T05:01:37.249Z,15.10
2022-09-14T05:04:12.997Z,15.10
2022-09-14T05:06:41.527Z,15.00
2022-09-14T05:09:13.600Z,14.90
2022-09-14T05:11:41.271Z,14.90
2022-09-14T05:14:09.625Z,14.90
2022-09-14T05:16:37.882Z,14.90
2022-09-14T05:19:07.799Z,14.80
2022-09-14T05:21:36.140Z,14.90
2022-09-14T05:24:14.967Z,14.80
2022-09-14T05:26:43.306Z,14.80
2022-09-14T05:29:15.362Z,14.70
2022-09-14T05:31:42.369Z,14.80
2022-09-14T05:34:10.666Z,14.70
2022-09-14T05:36:38.143Z,14.70
2022-09-14T05:39:06.115Z,14.70
2022-09-14T05:41:32.980Z,14.70
2022-09-14T05:44:00.679Z,14.80
2022-09-14T05:46:27.508Z,14.70
2022-09-14T05:48:54.457Z,14.60
2022-09-14T05:51:23.441Z,14.60
2022-09-14T05:53:51.717Z,14.70
2022-09-14T05:56:19.642Z,14.60
2022-09-14T05:58:46.988Z,14.60
2022-09-14T06:01:17.519Z,14.60
2022-09-14T06:03:45.817Z,14.60
2022-09-14T06:06:15.438Z,14.60
2022-09-14T06:08:44.224Z,14.60
2022-09-14T06:11:18.983Z,14.50
2022-09-14T06:13:47.005Z,14.50
2022-09-14T06:16:18.522Z,14.50
2022-09-14T06:18:47.460Z,14.50
2022-09-14T06:21:17.737Z,14.50
2022-09-14T06:23:46.096Z,14.50
2022-09-14T06:26:13.827Z,14.50
2022-09-14T06:28:41.609Z,14.50
2022-09-14T06:31:14.176Z,14.60
2022-09-14T06:33:46.265Z,14.60
2022-09-14T06:36:19.654Z,14.60
2022-09-14T06:38:48.884Z,14.60
2022-09-14T06:41:18.064Z,14.60
2022-09-14T06:43:45.814Z,14.60
2022-09-14T06:46:21.708Z,14.60
2022-09-14T06:48:53.057Z,14.60
2022-09-14T06:51:21.544Z,14.60
2022-09-14T06:53:49.443Z,14.70
2022-09-14T06:56:16.776Z,14.70
2022-09-14T06:58:43.933Z,14.70
2022-09-14T07:01:14.254Z,14.70
2022-09-14T07:03:43.482Z,14.70
2022-09-14T07:06:14.137Z,14.80
2022-09-14T07:08:41.692Z,14.70
2022-09-14T07:11:10.127Z,14.70
2022-09-14T07:13:37.202Z,14.70
2022-09-14T07:16:04.645Z,14.70
2022-09-14T07:18:35.356Z,14.70
2022-09-14T07:21:09.961Z,14.70
2022-09-14T07:23:38.494Z,14.70
2022-09-14T07:26:10.331Z,14.70
2022-09-14T07:28:38.098Z,14.70
2022-09-14T07:31:06.438Z,14.70
2022-09-14T07:33:33.880Z,14.70
2022-09-14T07:36:11.357Z,14.60
2022-09-14T07:38:53.850Z,14.60
2022-09-14T07:41:22.512Z,14.60
2022-09-14T07:43:52.143Z,14.50
2022-09-14T07:46:19.941Z,14.50
2022-09-14T07:48:47.829Z,14.50
2022-09-14T07:51:14.721Z,14.40
2022-09-14T07:53:43.379Z,14.40
2022-09-14T07:56:11.711Z,14.40
2022-09-14T07:58:38.971Z,14.40
2022-09-14T08:01:13.919Z,14.50
2022-09-14T08:03:43.375Z,14.50
2022-09-14T08:06:16.117Z,14.50
2022-09-14T08:08:44.982Z,14.50
2022-09-14T08:11:14.031Z,14.50
2022-09-14T08:13:44.284Z,14.50
2022-09-14T08:16:11.882Z,14.60
2022-09-14T08:18:39.209Z,14.50
2022-09-14T08:21:11.530Z,14.60
2022-09-14T08:23:39.595Z,14.60
2022-09-14T08:26:08.460Z,14.60
2022-09-14T08:28:36.350Z,14.60
2022-09-14T08:31:05.396Z,14.60
2022-09-14T08:33:33.823Z,14.70
2022-09-14T08:36:00.987Z,14.70
2022-09-14T08:38:27.851Z,14.80
2022-09-14T08:40:55.244Z,14.70
2022-09-14T08:43:25.236Z,14.80
2022-09-14T08:45:57.571Z,14.80
2022-09-14T08:48:30.739Z,14.90
2022-09-14T08:50:57.312Z,14.90
2022-09-14T08:53:25.546Z,15.00
2022-09-14T08:56:07.937Z,15.10
2022-09-14T08:59:06.145Z,15.20
2022-09-14T09:02:03.896Z,15.20
2022-09-14T09:04:44.961Z,15.20
2022-09-14T09:07:22.896Z,15.20
2022-09-14T09:09:52.430Z,15.20
2022-09-14T09:12:23.763Z,15.20
2022-09-14T09:14:55.042Z,15.20
2022-09-14T09:17:29.202Z,15.20
2022-09-14T09:20:20.704Z,15.20
2022-09-14T09:22:54.582Z,15.30
2022-09-14T09:25:29.410Z,15.30
2022-09-14T09:28:02.508Z,15.40
2022-09-14T09:30:30.180Z,15.40
2022-09-14T09:32:57.646Z,15.40
2022-09-14T09:35:24.986Z,15.40
2022-09-14T09:37:51.738Z,15.50
2022-09-14T09:40:32.362Z,15.50
2022-09-14T09:43:06.024Z,15.50
2022-09-14T09:45:48.690Z,15.50
2022-09-14T09:48:17.736Z,15.50
2022-09-14T09:50:59.354Z,15.60
2022-09-14T09:53:26.216Z,15.50
2022-09-14T09:55:53.067Z,15.50
2022-09-14T09:58:37.615Z,15.50
2022-09-14T10:01:12.024Z,15.40
2022-09-14T10:03:40.530Z,15.50
2022-09-14T10:06:12.321Z,15.50
2022-09-14T10:08:44.761Z,15.50
2022-09-14T10:11:32.410Z,15.50
2022-09-14T10:13:59.732Z,15.50
2022-09-14T10:16:33.437Z,15.50
2022-09-14T10:19:02.770Z,15.60
2022-09-14T10:21:31.224Z,15.60
2022-09-14T10:24:17.118Z,15.70
2022-09-14T10:26:44.111Z,15.70
2022-09-14T10:29:41.732Z,15.70
2022-09-14T10:32:22.217Z,15.70
2022-09-14T10:34:48.968Z,15.70
2022-09-14T10:37:43.453Z,15.70
2022-09-14T10:40:20.362Z,15.60
2022-09-14T10:42:51.793Z,15.60
2022-09-14T10:45:55.110Z,15.60
2022-09-14T10:48:46.347Z,15.60
2022-09-14T10:51:25.468Z,15.60
2022-09-14T10:54:14.976Z,15.60
2022-09-14T10:56:59.715Z,15.70
2022-09-14T10:59:38.361Z,15.60
2022-09-14T11:02:42.270Z,15.60
2022-09-14T11:05:27.010Z,15.60
2022-09-14T11:08:05.708Z,15.60
2022-09-14T11:10:56.056Z,15.60
2022-09-14T11:13:50.745Z,15.60
2022-09-14T11:16:47.933Z,15.50
2022-09-14T11:19:35.439Z,15.50
2022-09-14T11:22:28.451Z,15.50
2022-09-14T11:25:17.999Z,15.40
2022-09-14T11:28:00.688Z,15.40
2022-09-14T11:30:39.460Z,15.40
2022-09-14T11:33:14.213Z,15.30
2022-09-14T11:36:07.019Z,15.20
2022-09-14T11:38:48.523Z,15.10
2022-09-14T11:41:32.466Z,15.10
2022-09-14T11:44:02.711Z,15.10
2022-09-14T11:46:44.966Z,15.10
2022-09-14T11:49:26.667Z,15.00
2022-09-14T11:52:02.629Z,15.00
2022-09-14T11:54:29.276Z,15.00
2022-09-14T11:57:01.931Z,15.00
2022-09-14T11:59:39.561Z,15.10
2022-09-14T12:02:24.975Z,15.10
2022-09-14T12:05:07.284Z,15.10
2022-09-14T12:07:42.369Z,15.10
2022-09-14T12:10:15.328Z,15.00
2022-09-14T12:12:44.110Z,15.00
2022-09-14T12:15:28.872Z,14.90
2022-09-14T12:18:07.581Z,14.90
2022-09-14T12:20:38.426Z,14.90
2022-09-14T12:23:26.203Z,14.90
2022-09-14T12:26:00.049Z,14.90
2022-09-14T12:28:34.662Z,14.90
2022-09-14T12:31:02.681Z,15.00
2022-09-14T12:33:32.442Z,15.00
2022-09-14T12:36:11.047Z,15.00
2022-09-14T12:38:38.017Z,15.00
2022-09-14T12:41:10.372Z,15.00
2022-09-14T12:43:37.283Z,15.10
2022-09-14T12:46:22.347Z,15.00
2022-09-14T12:48:49.137Z,15.00
2022-09-14T12:51:29.375Z,15.10
2022-09-14T12:54:01.055Z,15.10
2022-09-14T12:56:41.429Z,15.00
2022-09-14T12:59:29.685Z,15.10
2022-09-14T13:02:23.962Z,15.10
2022-09-14T13:04:56.427Z,15.10
2022-09-14T13:07:26.046Z,15.10
2022-09-14T13:09:55.555Z,15.20
2022-09-14T13:12:34.690Z,15.10
2022-09-14T13:15:07.416Z,15.20
2022-09-14T13:17:34.164Z,15.10
2022-09-14T13:20:15.642Z,15.20
2022-09-14T13:22:43.035Z,15.20
2022-09-14T13:25:32.289Z,15.20
2022-09-14T13:28:16.482Z,15.10
2022-09-14T13:30:43.537Z,15.20
2022-09-14T13:33:17.751Z,15.10
2022-09-14T13:36:01.756Z,15.10
2022-09-14T13:38:34.339Z,15.10
2022-09-14T13:41:15.056Z,15.10
2022-09-14T13:43:44.061Z,14.90
2022-09-14T13:46:11.819Z,15.00
2022-09-14T13:48:41.420Z,14.90
2022-09-14T13:51:09.399Z,14.90
2022-09-14T13:53:51.553Z,14.80
2022-09-14T13:56:31.103Z,14.80
2022-09-14T13:59:07.124Z,14.70
2022-09-14T14:01:38.413Z,14.60
2022-09-14T14:04:05.392Z,14.60
2022-09-14T14:06:37.915Z,14.60
2022-09-14T14:09:09.836Z,14.60
2022-09-14T14:11:43.234Z,14.50
2022-09-14T14:14:16.151Z,14.50
2022-09-14T14:17:21.555Z,14.50
2022-09-14T14:19:50.011Z,14.50
2022-09-14T14:22:20.897Z,14.50
2022-09-14T14:25:12.444Z,14.40
2022-09-14T14:27:43.713Z,14.50
2022-09-14T14:30:22.027Z,14.50
2022-09-14T14:32:56.999Z,14.50
2022-09-14T14:35:30.076Z,14.60
2022-09-14T14:37:57.617Z,14.50
2022-09-14T14:40:27.262Z,14.60
2022-09-14T14:42:55.241Z,14.60
2022-09-14T14:45:26.517Z,14.60
2022-09-14T14:47:55.044Z,14.70
2022-09-14T14:50:24.281Z,14.60
2022-09-14T14:52:51.707Z,14.60
2022-09-14T14:55:21.041Z,14.50
2022-09-14T14:57:48.812Z,14.50
2022-09-14T15:00:26.263Z,14.50
2022-09-14T15:02:53.008Z,14.50
2022-09-14T15:05:20.597Z,14.40
2022-09-14T15:07:49.982Z,14.40
2022-09-14T15:10:17.102Z,14.50
2022-09-14T15:12:44.498Z,14.50
2022-09-14T15:15:16.428Z,14.50
2022-09-14T15:17:43.781Z,14.50
2022-09-14T15:20:11.021Z,14.60
2022-09-14T15:22:38.194Z,14.50
2022-09-14T15:25:05.939Z,14.60
2022-09-14T15:27:33.222Z,14.60
2022-09-14T15:30:00.026Z,14.60
2022-09-14T15:32:26.769Z,14.60
2022-09-14T15:34:53.613Z,14.60
2022-09-14T15:37:20.491Z,14.70
2022-09-14T15:39:54.807Z,14.70
2022-09-14T15:42:27.187Z,14.80
2022-09-14T15:44:53.876Z,14.80
2022-09-14T15:47:20.646Z,14.80
2022-09-14T15:49:51.612Z,14.70
2022-09-14T15:52:18.747Z,14.80
2022-09-14T15:54:45.424Z,14.70
2022-09-14T15:57:13.333Z,14.70
2022-09-14T15:59:40.108Z,14.70
2022-09-14T16:02:07.139Z,14.70
2022-09-14T16:04:38.188Z,14.60
2022-09-14T16:07:09.617Z,14.70
2022-09-14T16:09:41.395Z,14.70
2022-09-14T16:12:12.908Z,14.60
2022-09-14T16:14:39.613Z,14.70
2022-09-14T16:17:06.614Z,14.70
2022-09-14T16:19:33.319Z,14.70
2022-09-14T16:22:00.376Z,14.70
2022-09-14T16:24:27.612Z,14.70
2022-09-14T16:26:54.932Z,14.60
2022-09-14T16:29:24.133Z,14.50
2022-09-14T16:31:51.486Z,14.60
2022-09-14T16:34:24.362Z,14.50
2022-09-14T16:36:51.705Z,14.50
2022-09-14T16:39:22.882Z,14.50
2022-09-14T16:41:50.001Z,14.50
2022-09-14T16:44:22.871Z,14.50
2022-09-14T16:46:49.886Z,14.40
2022-09-14T16:49:17.957Z,14.50
2022-09-14T16:51:44.887Z,14.40
2022-09-14T16:54:18.989Z,14.40
2022-09-14T16:56:46.647Z,14.40
2022-09-14T16:59:14.006Z,14.40
2022-09-14T17:01:49.751Z,14.40
2022-09-14T17:04:22.969Z,14.40
2022-09-14T17:06:51.477Z,14.40
2022-09-14T17:09:20.994Z,14.40
2022-09-14T17:11:48.577Z,14.40
2022-09-14T17:14:28.508Z,14.40
2022-09-14T17:16:55.703Z,14.30
2022-09-14T17:19:22.959Z,14.30
2022-09-14T17:21:49.972Z,14.30
2022-09-14T17:24:18.685Z,14.30
2022-09-14T17:26:45.680Z,14.20
2022-09-14T17:29:12.520Z,14.20
2022-09-14T17:31:42.611Z,14.20
2022-09-14T17:34:11.441Z,14.20
2022-09-14T17:36:38.851Z,14.10
2022-09-14T17:39:11.657Z,14.10
2022-09-14T17:41:39.650Z,14.10
2022-09-14T17:44:07.505Z,14.10
2022-09-14T17:46:34.801Z,14.10
2022-09-14T17:49:04.796Z,14.00
2022-09-14T17:51:32.819Z,14.10
2022-09-14T17:54:00.997Z,14.10
2022-09-14T17:56:28.932Z,14.10
2022-09-14T17:59:02.330Z,14.10
2022-09-14T18:01:29.929Z,14.10
2022-09-14T18:04:00.238Z,14.10
2022-09-14T18:06:29.800Z,14.10
2022-09-14T18:09:00.349Z,14.10
2022-09-14T18:11:28.193Z,14.10
2022-09-14T18:13:55.957Z,14.10
2022-09-14T18:16:23.873Z,14.10
2022-09-14T18:18:51.066Z,14.10
2022-09-14T18:21:18.729Z,14.10
2022-09-14T18:23:50.366Z,14.00
2022-09-14T18:26:17.231Z,14.00
2022-09-14T18:28:44.766Z,13.90
2022-09-14T18:31:13.670Z,13.90
2022-09-14T18:33:46.003Z,13.90
2022-09-14T18:36:14.714Z,13.90
2022-09-14T18:38:42.099Z,13.90
2022-09-14T18:41:10.327Z,13.90
2022-09-14T18:43:37.664Z,13.90
2022-09-14T18:46:08.363Z,13.90
2022-09-14T18:48:35.548Z,13.90
2022-09-14T18:51:05.395Z,13.90
2022-09-14T18:53:32.712Z,13.80
2022-09-14T18:56:11.475Z,13.90
2022-09-14T18:58:45.155Z,13.80
2022-09-14T19:01:13.077Z,13.80
2022-09-14T19:03:41.879Z,13.80
2022-09-14T19:06:11.518Z,13.80
2022-09-14T19:08:38.359Z,13.80
2022-09-14T19:11:14.292Z,13.80
2022-09-14T19:13:41.310Z,13.90
2022-09-14T19:16:09.119Z,13.80
2022-09-14T19:18:36.546Z,13.80
2022-09-14T19:21:07.001Z,13.90
2022-09-14T19:23:34.304Z,13.90
2022-09-14T19:26:23.346Z,13.90
2022-09-14T19:28:50.085Z,13.90
2022-09-14T19:31:18.964Z,13.80
2022-09-14T19:33:46.182Z,13.90
2022-09-14T19:36:19.940Z,13.90
2022-09-14T19:38:48.087Z,13.90
2022-09-14T19:41:16.164Z,13.90
2022-09-14T19:43:43.454Z,13.90
2022-09-14T19:46:22.851Z,13.90
2022-09-14T19:48:49.760Z,13.90
2022-09-14T19:51:22.142Z,13.90
2022-09-14T19:53:50.613Z,13.90
2022-09-14T19:56:21.585Z,13.90
2022-09-14T19:58:50.259Z,13.80
2022-09-14T20:01:19.361Z,13.80
2022-09-14T20:03:47.004Z,13.80
2022-09-14T20:06:19.281Z,13.80
2022-09-14T20:08:46.617Z,13.80
2022-09-14T20:11:19.191Z,13.80
2022-09-14T20:13:48.421Z,13.80
2022-09-14T20:16:21.272Z,13.80
2022-09-14T20:18:49.467Z,13.80
2022-09-14T20:21:19.568Z,13.80
2022-09-14T20:24:11.605Z,13.80
2022-09-14T20:26:33.605Z,13.80
2022-09-14T20:29:01.184Z,13.80
2022-09-14T20:31:29.340Z,13.80
2022-09-14T20:33:57.226Z,13.70
2022-09-14T20:36:25.189Z,13.80
2022-09-14T20:38:54.683Z,13.80
2022-09-14T20:41:24.250Z,13.80
2022-09-14T20:43:51.592Z,13.80
2022-09-14T20:46:23.285Z,13.80
2022-09-14T20:48:50.969Z,13.80
2022-09-14T20:51:20.536Z,13.80
2022-09-14T20:53:48.566Z,13.80
2022-09-14T20:56:21.229Z,13.80
2022-09-14T20:58:48.838Z,13.80
2022-09-14T21:01:20.534Z,13.80
2022-09-14T21:03:48.969Z,13.80
2022-09-14T21:06:23.639Z,13.80
2022-09-14T21:08:50.787Z,13.80
2022-09-14T21:11:20.673Z,13.70
2022-09-14T21:13:47.939Z,13.80
2022-09-14T21:16:21.322Z,13.70
2022-09-14T21:18:52.131Z,13.70
2022-09-14T21:21:19.756Z,13.70
2022-09-14T21:23:48.550Z,13.70
2022-09-14T21:26:16.128Z,13.70
2022-09-14T21:28:43.108Z,13.60
2022-09-14T21:31:21.052Z,13.60
2022-09-14T21:33:50.921Z,13.50
2022-09-14T21:36:18.983Z,13.50
2022-09-14T21:38:54.039Z,13.50
2022-09-14T21:41:22.759Z,13.40
2022-09-14T21:43:49.836Z,13.40
2022-09-14T21:46:17.005Z,13.40
2022-09-14T21:48:43.813Z,13.40
2022-09-14T21:51:10.406Z,13.40
2022-09-14T21:53:37.234Z,13.40
2022-09-14T21:56:05.757Z,13.30
2022-09-14T21:58:32.826Z,13.20
2022-09-14T22:01:01.231Z,13.30
2022-09-14T22:03:28.632Z,13.20
2022-09-14T22:06:05.392Z,13.20
2022-09-14T22:08:34.104Z,13.20
2022-09-14T22:11:15.027Z,13.10
2022-09-14T22:13:42.319Z,13.10
2022-09-14T22:16:10.956Z,13.10
2022-09-14T22:18:39.127Z,13.10
2022-09-14T22:21:06.790Z,13.00
2022-09-14T22:23:34.998Z,13.00
2022-09-14T22:26:09.088Z,12.90
2022-09-14T22:28:42.668Z,12.90
2022-09-14T22:31:09.525Z,12.90
2022-09-14T22:33:36.421Z,12.80
2022-09-14T22:36:05.265Z,12.80
2022-09-14T22:38:34.470Z,12.80
2022-09-14T22:41:07.155Z,12.80
2022-09-14T22:43:35.263Z,12.70
2022-09-14T22:46:02.653Z,12.70
2022-09-14T22:48:29.394Z,12.70
2022-09-14T22:50:57.530Z,12.70
2022-09-14T22:53:25.581Z,12.60
2022-09-14T22:55:52.878Z,12.60
2022-09-14T22:58:22.740Z,12.60
2022-09-14T23:00:49.531Z,12.70
2022-09-14T23:03:17.469Z,12.60
2022-09-14T23:05:51.363Z,12.60
2022-09-14T23:08:18.891Z,12.50
2022-09-14T23:10:47.317Z,12.50
2022-09-14T23:13:15.024Z,12.50
2022-09-14T23:15:41.999Z,12.50
2022-09-14T23:18:09.253Z,12.50
2022-09-14T23:20:38.133Z,12.50
2022-09-14T23:23:04.809Z,12.40
2022-09-14T23:25:34.248Z,12.40
2022-09-14T23:28:01.782Z,12.40
2022-09-14T23:30:28.478Z,12.30
2022-09-14T23:32:55.132Z,12.30
2022-09-14T23:35:21.818Z,12.30
2022-09-14T23:37:48.480Z,12.30
2022-09-14T23:40:15.262Z,12.20
2022-09-14T23:42:41.978Z,12.20
2022-09-14T23:45:09.242Z,12.20
2022-09-14T23:47:36.036Z,12.20
2022-09-14T23:50:02.663Z,12.10
2022-09-14T23:52:57.375Z,12.10
2022-09-14T23:55:24.940Z,12.00
2022-09-14T23:57:51.615Z,12.00
